• Join FlightAware (Why Join?)
  • Login
  • US Flag 
06:44PM EDT


 

Airport Tracker/Info


-or-


 

Live Flight TrackerFlight Track Log ✈ AWE801 ✈ 06-May-2013 ✈ SBGL / GIG - KCLT

Flight Track Log - Related Links

Times and Time Zones

All times are in EDT time to prevent confusion due to time zone crossing. See the AWE801 flight status page for this flight to view local times or setup timezone preferences in your user account.

Time Position Orientation Groundspeed Altitude Reporting Facility
EDT Latitude Longitude Course Direction KTS MPH feet Rate Location/Type
09:10PM -22.4868 -43.4213 333° Northwest  Level FlightAware Approximate
09:11PM -22.3794 -43.4804 333° Northwest  Level FlightAware Approximate
09:12PM -22.2719 -43.5393 333° Northwest  Level FlightAware Approximate
09:13PM -22.1645 -43.5981 333° Northwest  Level FlightAware Approximate
09:14PM -22.0570 -43.6569 333° Northwest  Level FlightAware Approximate
09:15PM -21.9495 -43.7156 333° Northwest  Level FlightAware Approximate
09:16PM -21.8420 -43.7742 333° Northwest  Level FlightAware Approximate
09:17PM -21.7344 -43.8327 333° Northwest  Level FlightAware Approximate
09:18PM -21.6269 -43.8911 333° Northwest  Level FlightAware Approximate
09:19PM -21.5193 -43.9494 333° Northwest  Level FlightAware Approximate
09:20PM -21.4117 -44.0076 333° Northwest  Level FlightAware Approximate
09:21PM -21.3075 -44.0646 332° Northwest  Level FlightAware Approximate
09:22PM -21.2009 -44.1248 332° Northwest  Level FlightAware Approximate
09:23PM -21.0943 -44.1850 332° Northwest  Level FlightAware Approximate
09:24PM -20.9876 -44.2450 332° Northwest  Level FlightAware Approximate
09:25PM -20.8810 -44.3050 332° Northwest  Level FlightAware Approximate
09:26PM -20.7743 -44.3649 332° Northwest  Level FlightAware Approximate
09:27PM -20.6676 -44.4247 332° Northwest  Level FlightAware Approximate
09:28PM -20.5608 -44.4844 332° Northwest  Level FlightAware Approximate
09:29PM -20.4541 -44.5440 332° Northwest  Level FlightAware Approximate
09:30PM -20.3473 -44.6035 332° Northwest  Level FlightAware Approximate
09:31PM -20.2405 -44.6630 332° Northwest  Level FlightAware Approximate
09:32PM -20.1337 -44.7224 332° Northwest  Level FlightAware Approximate
09:33PM -20.0269 -44.7817 332° Northwest  Level FlightAware Approximate
09:34PM -19.9200 -44.8409 332° Northwest  Level FlightAware Approximate
09:35PM -19.8132 -44.9001 332° Northwest  Level FlightAware Approximate
09:36PM -19.7063 -44.9591 333° Northwest  Level FlightAware Approximate
09:37PM -19.5994 -45.0181 333° Northwest  Level FlightAware Approximate
09:38PM -19.4924 -45.0770 333° Northwest  Level FlightAware Approximate
09:39PM -19.3855 -45.1358 333° Northwest  Level FlightAware Approximate
09:40PM -19.2785 -45.1946 333° Northwest  Level FlightAware Approximate
09:41PM -19.1715 -45.2532 333° Northwest  Level FlightAware Approximate
09:42PM -19.0645 -45.3118 333° Northwest  Level FlightAware Approximate
09:43PM -18.9575 -45.3704 333° Northwest  Level FlightAware Approximate
09:44PM -18.8505 -45.4288 333° Northwest  Level FlightAware Approximate
09:45PM -18.7434 -45.4872 333° Northwest  Level FlightAware Approximate
09:46PM -18.6363 -45.5455 333° Northwest  Level FlightAware Approximate
09:47PM -18.5292 -45.6037 333° Northwest  Level FlightAware Approximate
09:48PM -18.4221 -45.6618 333° Northwest  Level FlightAware Approximate
09:49PM -18.3150 -45.7199 333° Northwest  Level FlightAware Approximate
09:50PM -18.2078 -45.7779 333° Northwest  Level FlightAware Approximate
09:51PM -18.1006 -45.8359 333° Northwest  Level FlightAware Approximate
09:52PM -17.9935 -45.8937 333° Northwest  Level FlightAware Approximate
09:53PM -17.8862 -45.9515 333° Northwest  Level FlightAware Approximate
09:54PM -17.7790 -46.0092 333° Northwest  Level FlightAware Approximate
09:55PM -17.6718 -46.0669 333° Northwest  Level FlightAware Approximate
09:56PM -17.5645 -46.1245 333° Northwest  Level FlightAware Approximate
09:57PM -17.4573 -46.1820 333° Northwest  Level FlightAware Approximate
09:58PM -17.3500 -46.2394 333° Northwest  Level FlightAware Approximate
09:59PM -17.2427 -46.2968 333° Northwest  Level FlightAware Approximate
10:00PM -17.1354 -46.3541 333° Northwest  Level FlightAware Approximate
10:01PM -17.0280 -46.4114 333° Northwest  Level FlightAware Approximate
10:02PM -16.9207 -46.4686 333° Northwest  Level FlightAware Approximate
10:03PM -16.8133 -46.5257 333° Northwest  Level FlightAware Approximate
10:04PM -16.7059 -46.5827 333° Northwest  Level FlightAware Approximate
10:05PM -16.5985 -46.6397 333° Northwest  Level FlightAware Approximate
10:06PM -16.4911 -46.6967 333° Northwest  Level FlightAware Approximate
10:07PM -16.3837 -46.7535 333° Northwest  Level FlightAware Approximate
10:08PM -16.2763 -46.8103 333° Northwest  Level FlightAware Approximate
10:09PM -16.1688 -46.8671 333° Northwest  Level FlightAware Approximate
10:10PM -16.0613 -46.9238 333° Northwest  Level FlightAware Approximate
10:11PM -15.9538 -46.9804 333° Northwest  Level FlightAware Approximate
10:12PM -15.8463 -47.0369 333° Northwest  Level FlightAware Approximate
10:13PM -15.7388 -47.0934 333° Northwest  Level FlightAware Approximate
10:14PM -15.6313 -47.1499 333° Northwest  Level FlightAware Approximate
10:15PM -15.5237 -47.2062 333° Northwest  Level FlightAware Approximate
10:16PM -15.4162 -47.2626 333° Northwest  Level FlightAware Approximate
10:17PM -15.3086 -47.3188 333° Northwest  Level FlightAware Approximate
10:18PM -15.2010 -47.3750 333° Northwest  Level FlightAware Approximate
10:19PM -15.0934 -47.4312 333° Northwest  Level FlightAware Approximate
10:20PM -14.9858 -47.4873 333° Northwest  Level FlightAware Approximate
10:21PM -14.8781 -47.5433 333° Northwest  Level FlightAware Approximate
10:22PM -14.7705 -47.5993 333° Northwest  Level FlightAware Approximate
10:23PM -14.6628 -47.6552 333° Northwest  Level FlightAware Approximate
10:24PM -14.5552 -47.7110 333° Northwest  Level FlightAware Approximate
10:25PM -14.4475 -47.7668 333° Northwest  Level FlightAware Approximate
10:26PM -14.3398 -47.8226 333° Northwest  Level FlightAware Approximate
10:27PM -14.2321 -47.8783 333° Northwest  Level FlightAware Approximate
10:28PM -14.1243 -47.9340 333° Northwest  Level FlightAware Approximate
10:29PM -14.0166 -47.9896 333° Northwest  Level FlightAware Approximate
10:30PM -13.9089 -48.0451 333° Northwest  Level FlightAware Approximate
10:31PM -13.8011 -48.1006 333° Northwest  Level FlightAware Approximate
10:32PM -13.6933 -48.1560 333° Northwest  Level FlightAware Approximate
10:33PM -13.5855 -48.2114 333° Northwest  Level FlightAware Approximate
10:34PM -13.4777 -48.2668 333° Northwest  Level FlightAware Approximate
10:35PM -13.3699 -48.3220 333° Northwest  Level FlightAware Approximate
10:36PM -13.2621 -48.3773 333° Northwest  Level FlightAware Approximate
10:37PM -13.1543 -48.4325 334° Northwest  Level FlightAware Approximate
10:38PM -13.0464 -48.4876 334° Northwest  Level FlightAware Approximate
10:39PM -12.9386 -48.5427 334° Northwest  Level FlightAware Approximate
10:40PM -12.8307 -48.5978 334° Northwest  Level FlightAware Approximate
10:41PM -12.7228 -48.6528 334° Northwest  Level FlightAware Approximate
10:42PM -12.6149 -48.7077 334° Northwest  Level FlightAware Approximate
10:43PM -12.5070 -48.7626 334° Northwest  Level FlightAware Approximate
10:44PM -12.3991 -48.8175 334° Northwest  Level FlightAware Approximate
10:45PM -12.2912 -48.8723 334° Northwest  Level FlightAware Approximate
10:46PM -12.1832 -48.9271 334° Northwest  Level FlightAware Approximate
10:47PM -12.0753 -48.9818 334° Northwest  Level FlightAware Approximate
10:48PM -11.9673 -49.0365 334° Northwest  Level FlightAware Approximate
10:49PM -11.8594 -49.0911 334° Northwest  Level FlightAware Approximate
10:50PM -11.7514 -49.1457 334° Northwest  Level FlightAware Approximate
10:51PM -11.6434 -49.2003 334° Northwest  Level FlightAware Approximate
10:52PM -11.5354 -49.2548 334° Northwest  Level FlightAware Approximate
10:53PM -11.4274 -49.3093 334° Northwest  Level FlightAware Approximate
10:54PM -11.3194 -49.3637 334° Northwest  Level FlightAware Approximate
10:55PM -11.2113 -49.4181 334° Northwest  Level FlightAware Approximate
10:56PM -11.1033 -49.4724 334° Northwest  Level FlightAware Approximate
10:57PM -10.9952 -49.5267 334° Northwest  Level FlightAware Approximate
10:58PM -10.8872 -49.5810 334° Northwest  Level FlightAware Approximate
10:59PM -10.7791 -49.6352 334° Northwest  Level FlightAware Approximate
11:00PM -10.6710 -49.6894 334° Northwest  Level FlightAware Approximate
11:01PM -10.5629 -49.7436 334° Northwest  Level FlightAware Approximate
11:02PM -10.4548 -49.7977 334° Northwest  Level FlightAware Approximate
11:03PM -10.3467 -49.8518 334° Northwest  Level FlightAware Approximate
11:04PM -10.2386 -49.9058 334° Northwest  Level FlightAware Approximate
11:05PM -10.1305 -49.9598 334° Northwest  Level FlightAware Approximate
11:06PM -10.0224 -50.0138 334° Northwest  Level FlightAware Approximate
11:07PM -9.9142 -50.0677 334° Northwest  Level FlightAware Approximate
11:08PM -9.8061 -50.1216 334° Northwest  Level FlightAware Approximate
11:09PM -9.6979 -50.1754 334° Northwest  Level FlightAware Approximate
11:10PM -9.5897 -50.2293 334° Northwest  Level FlightAware Approximate
11:11PM -9.4816 -50.2831 334° Northwest  Level FlightAware Approximate
11:12PM -9.3734 -50.3368 334° Northwest  Level FlightAware Approximate
11:13PM -9.2652 -50.3905 334° Northwest  Level FlightAware Approximate
11:14PM -9.1570 -50.4442 334° Northwest  Level FlightAware Approximate
11:15PM -9.0488 -50.4979 334° Northwest  Level FlightAware Approximate
11:16PM -8.9405 -50.5515 334° Northwest  Level FlightAware Approximate
11:17PM -8.8323 -50.6051 334° Northwest  Level FlightAware Approximate
11:18PM -8.7241 -50.6586 334° Northwest  Level FlightAware Approximate
11:19PM -8.6159 -50.7122 334° Northwest  Level FlightAware Approximate
11:20PM -8.5076 -50.7657 334° Northwest  Level FlightAware Approximate
11:21PM -8.3994 -50.8191 334° Northwest  Level FlightAware Approximate
11:22PM -8.2911 -50.8726 334° Northwest  Level FlightAware Approximate
11:23PM -8.1828 -50.9260 334° Northwest  Level FlightAware Approximate
11:24PM -8.0746 -50.9794 334° Northwest  Level FlightAware Approximate
11:25PM -7.9663 -51.0327 334° Northwest  Level FlightAware Approximate
11:26PM -7.8580 -51.0860 334° Northwest  Level FlightAware Approximate
11:27PM -7.7497 -51.1393 334° Northwest  Level FlightAware Approximate
11:28PM -7.6414 -51.1926 334° Northwest  Level FlightAware Approximate
11:29PM -7.5331 -51.2458 334° Northwest  Level FlightAware Approximate
11:30PM -7.4248 -51.2990 334° Northwest  Level FlightAware Approximate
11:31PM -7.3165 -51.3522 334° Northwest  Level FlightAware Approximate
11:32PM -7.2081 -51.4054 334° Northwest  Level FlightAware Approximate
11:33PM -7.0998 -51.4585 334° Northwest  Level FlightAware Approximate
11:34PM -6.9914 -51.5116 334° Northwest  Level FlightAware Approximate
11:35PM -6.8831 -51.5647 334° Northwest  Level FlightAware Approximate
11:36PM -6.7748 -51.6178 334° Northwest  Level FlightAware Approximate
11:37PM -6.6664 -51.6708 334° Northwest  Level FlightAware Approximate
11:38PM -6.5580 -51.7238 334° Northwest  Level FlightAware Approximate
11:39PM -6.4497 -51.7768 334° Northwest  Level FlightAware Approximate
11:40PM -6.3413 -51.8298 334° Northwest  Level FlightAware Approximate
11:41PM -6.2329 -51.8827 334° Northwest  Level FlightAware Approximate
11:42PM -6.1245 -51.9356 334° Northwest  Level FlightAware Approximate
11:43PM -6.0161 -51.9885 334° Northwest  Level FlightAware Approximate
11:44PM -5.9078 -52.0414 334° Northwest  Level FlightAware Approximate
11:45PM -5.7993 -52.0943 334° Northwest  Level FlightAware Approximate
11:46PM -5.6909 -52.1471 334° Northwest  Level FlightAware Approximate
11:47PM -5.5825 -52.2000 334° Northwest  Level FlightAware Approximate
11:48PM -5.4741 -52.2528 334° Northwest  Level FlightAware Approximate
11:49PM -5.3657 -52.3055 334° Northwest  Level FlightAware Approximate
11:50PM -5.2573 -52.3583 334° Northwest  Level FlightAware Approximate
11:51PM -5.1489 -52.4110 334° Northwest  Level FlightAware Approximate
11:52PM -5.0404 -52.4638 334° Northwest  Level FlightAware Approximate
11:53PM -4.9320 -52.5165 334° Northwest  Level FlightAware Approximate
11:54PM -4.8236 -52.5692 334° Northwest  Level FlightAware Approximate
11:55PM -4.7151 -52.6218 334° Northwest  Level FlightAware Approximate
11:56PM -4.6067 -52.6745 334° Northwest  Level FlightAware Approximate
11:57PM -4.4982 -52.7271 334° Northwest  Level FlightAware Approximate
11:58PM -4.3898 -52.7798 334° Northwest  Level FlightAware Approximate
11:59PM -4.2813 -52.8324 334° Northwest  Level FlightAware Approximate
12:00AM -4.1728 -52.8850 334° Northwest  Level FlightAware Approximate
12:01AM -4.0644 -52.9375 334° Northwest  Level FlightAware Approximate
12:02AM -3.9559 -52.9901 334° Northwest  Level FlightAware Approximate
12:03AM -3.8474 -53.0427 334° Northwest  Level FlightAware Approximate
12:04AM -3.7389 -53.0952 334° Northwest  Level FlightAware Approximate
12:05AM -3.6305 -53.1477 334° Northwest  Level FlightAware Approximate
12:06AM -3.5220 -53.2002 334° Northwest  Level FlightAware Approximate
12:07AM -3.4135 -53.2528 334° Northwest  Level FlightAware Approximate
12:08AM -3.3050 -53.3052 334° Northwest  Level FlightAware Approximate
12:09AM -3.1965 -53.3577 334° Northwest  Level FlightAware Approximate
12:10AM -3.0880 -53.4102 334° Northwest  Level FlightAware Approximate
12:11AM -2.9795 -53.4627 334° Northwest  Level FlightAware Approximate
12:12AM -2.8710 -53.5151 334° Northwest  Level FlightAware Approximate
12:13AM -2.7625 -53.5675 334° Northwest  Level FlightAware Approximate
12:14AM -2.6540 -53.6200 334° Northwest  Level FlightAware Approximate
12:15AM -2.5455 -53.6724 334° Northwest  Level FlightAware Approximate
12:16AM -2.4370 -53.7248 334° Northwest  Level FlightAware Approximate
12:17AM -2.3285 -53.7772 334° Northwest  Level FlightAware Approximate
12:18AM -2.2200 -53.8296 334° Northwest  Level FlightAware Approximate
12:19AM -2.1115 -53.8820 334° Northwest  Level FlightAware Approximate
12:20AM -2.0029 -53.9344 334° Northwest  Level FlightAware Approximate
12:21AM -1.8944 -53.9867 334° Northwest  Level FlightAware Approximate
12:22AM -1.7859 -54.0391 334° Northwest  Level FlightAware Approximate
12:23AM -1.6774 -54.0914 334° Northwest  Level FlightAware Approximate
12:24AM -1.5689 -54.1438 334° Northwest  Level FlightAware Approximate
12:25AM -1.4604 -54.1962 334° Northwest  Level FlightAware Approximate
12:26AM -1.3518 -54.2485 334° Northwest  Level FlightAware Approximate
12:27AM -1.2433 -54.3008 334° Northwest  Level FlightAware Approximate
12:28AM -1.1348 -54.3532 334° Northwest  Level FlightAware Approximate
12:29AM -1.0262 -54.4055 334° Northwest  Level FlightAware Approximate
12:30AM -0.9177 -54.4578 334° Northwest  Level FlightAware Approximate
12:31AM -0.8092 -54.5101 334° Northwest  Level FlightAware Approximate
12:32AM -0.7006 -54.5625 334° Northwest  Level FlightAware Approximate
12:33AM -0.5921 -54.6148 334° Northwest  Level FlightAware Approximate
12:34AM -0.4836 -54.6671 334° Northwest  Level FlightAware Approximate
12:35AM -0.3751 -54.7194 334° Northwest  Level FlightAware Approximate
12:36AM -0.2665 -54.7717 334° Northwest  Level FlightAware Approximate
12:37AM -0.1580 -54.8240 334° Northwest  Level FlightAware Approximate
12:38AM -0.0495 -54.8763 334° Northwest  Level FlightAware Approximate
12:39AM 0.0591 -54.9286 334° Northwest  Level FlightAware Approximate
12:40AM 0.1676 -54.9809 334° Northwest  Level FlightAware Approximate
12:41AM 0.2761 -55.0333 334° Northwest  Level FlightAware Approximate
12:42AM 0.3846 -55.0856 334° Northwest  Level FlightAware Approximate
12:43AM 0.4932 -55.1379 334° Northwest  Level FlightAware Approximate
12:44AM 0.6017 -55.1902 334° Northwest  Level FlightAware Approximate
12:45AM 0.7102 -55.2425 334° Northwest  Level FlightAware Approximate
12:46AM 0.8188 -55.2948 334° Northwest  Level FlightAware Approximate
12:47AM 0.9273 -55.3472 334° Northwest  Level FlightAware Approximate
12:48AM 1.0358 -55.3995 334° Northwest  Level FlightAware Approximate
12:49AM 1.1444 -55.4518 334° Northwest  Level FlightAware Approximate
12:50AM 1.2529 -55.5042 334° Northwest  Level FlightAware Approximate
12:51AM 1.3614 -55.5565 334° Northwest  Level FlightAware Approximate
12:52AM 1.4699 -55.6088 334° Northwest  Level FlightAware Approximate
12:53AM 1.5785 -55.6612 334° Northwest  Level FlightAware Approximate
12:54AM 1.6870 -55.7135 334° Northwest  Level FlightAware Approximate
12:55AM 1.7955 -55.7659 334° Northwest  Level FlightAware Approximate
12:56AM 1.9040 -55.8182 334° Northwest  Level FlightAware Approximate
12:57AM 2.0125 -55.8706 334° Northwest  Level FlightAware Approximate
12:58AM 2.1211 -55.9230 334° Northwest  Level FlightAware Approximate
12:59AM 2.2296 -55.9754 334° Northwest  Level FlightAware Approximate
01:00AM 2.3381 -56.0278 334° Northwest  Level FlightAware Approximate
01:01AM 2.4466 -56.0802 334° Northwest  Level FlightAware Approximate
01:02AM 2.5551 -56.1326 334° Northwest  Level FlightAware Approximate
01:03AM 2.6636 -56.1850 334° Northwest  Level FlightAware Approximate
01:04AM 2.7721 -56.2374 334° Northwest  Level FlightAware Approximate
01:05AM 2.8806 -56.2899 334° Northwest  Level FlightAware Approximate
01:06AM 2.9891 -56.3423 334° Northwest  Level FlightAware Approximate
01:07AM 3.0976 -56.3948 334° Northwest  Level FlightAware Approximate
01:08AM 3.2061 -56.4473 334° Northwest  Level FlightAware Approximate
01:09AM 3.3146 -56.4997 334° Northwest  Level FlightAware Approximate
01:10AM 3.4231 -56.5522 334° Northwest  Level FlightAware Approximate
01:11AM 3.5316 -56.6047 334° Northwest  Level FlightAware Approximate
01:12AM 3.6400 -56.6572 334° Northwest  Level FlightAware Approximate
01:13AM 3.7485 -56.7098 334° Northwest  Level FlightAware Approximate
01:14AM 3.8570 -56.7623 334° Northwest  Level FlightAware Approximate
01:15AM 3.9655 -56.8149 334° Northwest  Level FlightAware Approximate
01:16AM 4.0739 -56.8674 334° Northwest  Level FlightAware Approximate
01:17AM 4.1824 -56.9200 334° Northwest  Level FlightAware Approximate
01:18AM 4.2909 -56.9726 334° Northwest  Level FlightAware Approximate
01:19AM 4.3993 -57.0252 334° Northwest  Level FlightAware Approximate
01:20AM 4.5078 -57.0779 334° Northwest  Level FlightAware Approximate
01:21AM 4.6163 -57.1305 334° Northwest  Level FlightAware Approximate
01:22AM 4.7247 -57.1832 334° Northwest  Level FlightAware Approximate
01:23AM 4.8331 -57.2358 334° Northwest  Level FlightAware Approximate
01:24AM 4.9416 -57.2885 334° Northwest  Level FlightAware Approximate
01:25AM 5.0500 -57.3412 334° Northwest  Level FlightAware Approximate
01:26AM 5.1585 -57.3940 334° Northwest  Level FlightAware Approximate
01:27AM 5.2669 -57.4467 334° Northwest  Level FlightAware Approximate
01:28AM 5.3753 -57.4995 334° Northwest  Level FlightAware Approximate
01:29AM 5.4837 -57.5523 334° Northwest  Level FlightAware Approximate
01:30AM 5.5921 -57.6051 334° Northwest  Level FlightAware Approximate
01:31AM 5.7005 -57.6579 334° Northwest  Level FlightAware Approximate
01:32AM 5.8089 -57.7107 334° Northwest  Level FlightAware Approximate
01:33AM 5.9173 -57.7636 334° Northwest  Level FlightAware Approximate
01:34AM 6.0257 -57.8165 334° Northwest  Level FlightAware Approximate
01:35AM 6.1341 -57.8694 334° Northwest  Level FlightAware Approximate
01:36AM 6.2425 -57.9223 334° Northwest  Level FlightAware Approximate
01:37AM 6.3509 -57.9752 334° Northwest  Level FlightAware Approximate
01:38AM 6.4594 -58.0280 334° Northwest  Level FlightAware Approximate
01:39AM 6.5678 -58.0808 334° Northwest  Level FlightAware Approximate
01:40AM 6.6763 -58.1337 334° Northwest  Level FlightAware Approximate
01:41AM 6.7847 -58.1866 334° Northwest  Level FlightAware Approximate
01:42AM 6.8931 -58.2394 334° Northwest  Level FlightAware Approximate
01:43AM 7.0016 -58.2924 334° Northwest  Level FlightAware Approximate
01:44AM 7.1100 -58.3453 334° Northwest  Level FlightAware Approximate
01:45AM 7.2184 -58.3983 334° Northwest  Level FlightAware Approximate
01:46AM 7.3268 -58.4513 334° Northwest  Level FlightAware Approximate
01:47AM 7.4352 -58.5043 334° Northwest  Level FlightAware Approximate
01:48AM 7.5436 -58.5573 334° Northwest  Level FlightAware Approximate
01:49AM 7.6520 -58.6104 334° Northwest  Level FlightAware Approximate
01:50AM 7.7604 -58.6635 334° Northwest  Level FlightAware Approximate
01:51AM 7.8688 -58.7166 334° Northwest  Level FlightAware Approximate
01:52AM 7.9771 -58.7698 334° Northwest  Level FlightAware Approximate
01:53AM 8.0855 -58.8229 334° Northwest  Level FlightAware Approximate
01:54AM 8.1938 -58.8761 334° Northwest  Level FlightAware Approximate
01:55AM 8.3022 -58.9294 334° Northwest  Level FlightAware Approximate
01:56AM 8.4105 -58.9827 334° Northwest  Level FlightAware Approximate
01:57AM 8.5189 -59.0359 334° Northwest  Level FlightAware Approximate
01:58AM 8.6272 -59.0893 334° Northwest  Level FlightAware Approximate
01:59AM 8.7354 -59.1429 333° Northwest  Level FlightAware Approximate
02:00AM 8.8430 -59.1978 333° Northwest  Level FlightAware Approximate
02:01AM 8.9506 -59.2527 333° Northwest  Level FlightAware Approximate
02:02AM 9.0581 -59.3076 333° Northwest  Level FlightAware Approximate
02:03AM 9.1657 -59.3626 333° Northwest  Level FlightAware Approximate
02:04AM 9.2732 -59.4176 333° Northwest  Level FlightAware Approximate
02:05AM 9.3808 -59.4727 333° Northwest  Level FlightAware Approximate
02:06AM 9.4885 -59.5274 334° Northwest  Level FlightAware Approximate
02:07AM 9.5969 -59.5808 334° Northwest  Level FlightAware Approximate
02:08AM 9.7052 -59.6342 334° Northwest  Level FlightAware Approximate
02:09AM 9.8136 -59.6877 334° Northwest  Level FlightAware Approximate
02:10AM 9.9219 -59.7411 334° Northwest  Level FlightAware Approximate
02:11AM 10.0302 -59.7947 334° Northwest  Level FlightAware Approximate
02:12AM 10.1386 -59.8482 334° Northwest  Level FlightAware Approximate
02:13AM 10.2469 -59.9018 334° Northwest  Level FlightAware Approximate
02:14AM 10.3552 -59.9555 334° Northwest  Level FlightAware Approximate
02:15AM 10.4635 -60.0091 334° Northwest  Level FlightAware Approximate
02:16AM 10.5718 -60.0628 334° Northwest  Level FlightAware Approximate
02:17AM 10.6801 -60.1166 334° Northwest  Level FlightAware Approximate
02:18AM 10.7883 -60.1704 334° Northwest  Level FlightAware Approximate
02:19AM 10.8966 -60.2242 334° Northwest  Level FlightAware Approximate
02:20AM 11.0049 -60.2780 334° Northwest  Level FlightAware Approximate
02:21AM 11.1131 -60.3319 334° Northwest  Level FlightAware Approximate
02:22AM 11.2214 -60.3859 334° Northwest  Level FlightAware Approximate
02:23AM 11.3296 -60.4399 334° Northwest  Level FlightAware Approximate
02:24AM 11.4378 -60.4939 334° Northwest  Level FlightAware Approximate
02:25AM 11.5460 -60.5480 334° Northwest  Level FlightAware Approximate
02:26AM 11.6542 -60.6021 334° Northwest  Level FlightAware Approximate
02:27AM 11.7624 -60.6563 333° Northwest  Level FlightAware Approximate
02:28AM 11.8701 -60.7113 333° Northwest  Level FlightAware Approximate
02:29AM 11.9779 -60.7663 333° Northwest  Level FlightAware Approximate
02:30AM 12.0857 -60.8213 333° Northwest  Level FlightAware Approximate
02:31AM 12.1935 -60.8764 333° Northwest  Level FlightAware Approximate
02:32AM 12.3013 -60.9316 333° Northwest  Level FlightAware Approximate
02:33AM 12.4090 -60.9868 333° Northwest  Level FlightAware Approximate
02:34AM 12.5167 -61.0420 333° Northwest  Level FlightAware Approximate
02:35AM 12.6244 -61.0973 333° Northwest  Level FlightAware Approximate
02:36AM 12.7322 -61.1526 333° Northwest  Level FlightAware Approximate
02:37AM 12.8399 -61.2080 333° Northwest  Level FlightAware Approximate
02:38AM 12.9475 -61.2634 333° Northwest  Level FlightAware Approximate
02:39AM 13.0614 -61.3180 335° Northwest  Level FlightAware Approximate
02:40AM 13.1752 -61.3727 335° Northwest  Level FlightAware Approximate
02:41AM 13.2887 -61.4280 333° Northwest  Level FlightAware Approximate
02:42AM 13.4011 -61.4858 333° Northwest  Level FlightAware Approximate
02:43AM 13.5134 -61.5437 333° Northwest  Level FlightAware Approximate
02:44AM 13.6258 -61.6016 333° Northwest  Level FlightAware Approximate
02:45AM 13.7381 -61.6596 333° Northwest  Level FlightAware Approximate
02:46AM 13.8505 -61.7176 333° Northwest  Level FlightAware Approximate
02:47AM 13.9628 -61.7757 333° Northwest  Level FlightAware Approximate
02:48AM 14.0751 -61.8339 333° Northwest  Level FlightAware Approximate
02:49AM 14.1874 -61.8921 333° Northwest  Level FlightAware Approximate
02:50AM 14.2997 -61.9504 333° Northwest  Level FlightAware Approximate
02:51AM 14.4119 -62.0087 333° Northwest  Level FlightAware Approximate
02:52AM 14.5242 -62.0671 333° Northwest  Level FlightAware Approximate
02:53AM 14.6364 -62.1255 333° Northwest  Level FlightAware Approximate
02:54AM 14.7486 -62.1840 333° Northwest  Level FlightAware Approximate
02:55AM 14.8608 -62.2425 333° Northwest  Level FlightAware Approximate
02:56AM 14.9730 -62.3012 333° Northwest  Level FlightAware Approximate
02:57AM 15.0852 -62.3599 333° Northwest  Level FlightAware Approximate
02:58AM 15.1973 -62.4186 333° Northwest  Level FlightAware Approximate
02:59AM 15.3095 -62.4774 333° Northwest  Level FlightAware Approximate
03:00AM 15.4216 -62.5363 333° Northwest  Level FlightAware Approximate
03:01AM 15.5337 -62.5952 333° Northwest  Level FlightAware Approximate
03:02AM 15.6458 -62.6542 333° Northwest  Level FlightAware Approximate
03:03AM 15.7579 -62.7133 333° Northwest  Level FlightAware Approximate
03:04AM 15.8700 -62.7724 333° Northwest  Level FlightAware Approximate
03:05AM 15.9820 -62.8316 333° Northwest  Level FlightAware Approximate
03:06AM 16.0940 -62.8909 333° Northwest  Level FlightAware Approximate
03:07AM 16.2061 -62.9502 333° Northwest  Level FlightAware Approximate
03:08AM 16.3146 -63.0146 316° Northwest  Level FlightAware Approximate
03:09AM 16.3978 -63.1126 310° West  Level FlightAware Approximate
03:10AM 16.4791 -63.2126 310° West  Level FlightAware Approximate
03:10AM 16.2167 -62.8667 312° West 580 667 38,000  Level San Juan Center
03:11AM 16.5606 -63.3123 312° West  Level FlightAware Approximate
03:11AM 16.3000 -62.9500 316° Northwest 470 541 38,000  Level San Juan Center
03:12AM 16.6446 -63.4099 312° West  Level FlightAware Approximate
03:12AM 16.3833 -63.0500 311° West 440 506 38,000  Level San Juan Center
03:13AM 16.7285 -63.5076 312° West  Level FlightAware Approximate
03:13AM 16.4667 -63.1500 311° West 440 506 38,000  Level San Juan Center
03:14AM 16.8124 -63.6053 312° West  Level FlightAware Approximate
03:14AM 16.5333 -63.2500 305° West 420 483 38,000  Level San Juan Center
03:15AM 16.8963 -63.7031 312° West  Level FlightAware Approximate
03:15AM 16.6167 -63.3500 311° West 440 506 38,000  Level San Juan Center
03:16AM 16.7000 -63.4500 311° West 430 495 38,000  Level San Juan Center
03:18AM 16.8417 -63.6228 311° West  Level FlightAware Approximate
03:20AM 17.0333 -63.8167 311° West 440 506 38,000  Level San Juan Center
03:21AM 17.1167 -63.9000 316° Northwest 440 506 38,000  Level San Juan Center
03:22AM 17.2000 -64.0000 311° West 440 506 38,000  Level San Juan Center
03:23AM 17.3000 -64.1000 316° Northwest 450 518 38,000  Level San Juan Center
03:24AM 17.3833 -64.2000 311° West 450 518 38,000  Level San Juan Center
03:25AM 17.4170 -64.3195 311° West  Level FlightAware Approximate
03:25AM 17.4667 -64.2833 316° Northwest 450 518 38,000  Level San Juan Center
03:26AM 17.5500 -64.3833 311° West 450 518 38,000  Level San Juan Center
03:27AM 17.6333 -64.4667 316° Northwest 450 518 38,000  Level San Juan Center
03:28AM 17.7333 -64.5667 316° Northwest 450 518 38,000  Level San Juan Center
03:29AM 17.8167 -64.6667 311° West 450 518 38,000  Level San Juan Center
03:30AM 17.9000 -64.7667 311° West 450 518 38,000  Level San Juan Center
03:31AM 17.9833 -64.8667 311° West 450 518 38,000  Level San Juan Center
03:32AM 18.0667 -64.9667 311° West 440 506 38,000  Level San Juan Center
03:33AM 18.1500 -65.0500 316° Northwest 440 506 38,000  Level San Juan Center
03:34AM 18.2333 -65.1500 311° West 460 529 38,000  Level San Juan Center
03:35AM 18.3333 -65.2500 316° Northwest 450 518 38,000  Level San Juan Center
03:36AM 18.4167 -65.3500 311° West 440 506 38,000  Level San Juan Center
03:37AM 18.5000 -65.4333 317° Northwest 420 483 38,000  Level San Juan Center
03:38AM 18.5833 -65.5333 311° West 440 506 38,000  Level San Juan Center
03:39AM 18.6667 -65.6333 311° West 460 529 38,000  Level San Juan Center
03:40AM 18.7333 -65.7167 310° West 430 495 38,000  Level San Juan Center
03:41AM 18.8333 -65.8167 317° Northwest 450 518 38,000  Level San Juan Center
03:42AM 18.9167 -65.9167 311° West 460 529 38,000  Level San Juan Center
03:43AM 19.0000 -66.0000 317° Northwest 430 495 38,000  Level San Juan Center
03:44AM 19.0833 -66.1000 311° West 440 506 38,000  Level San Juan Center
03:45AM 19.1500 -66.2000 305° West 450 518 38,000  Level San Juan Center
03:46AM 19.2333 -66.2833 317° Northwest 430 495 38,000  Level San Juan Center
03:47AM 19.3167 -66.3833 311° West 440 506 38,000  Level San Juan Center
03:48AM 19.4000 -66.4833 311° West 440 506 38,000  Level San Juan Center
03:49AM 19.4833 -66.5667 317° Northwest 440 506 38,000  Level San Juan Center
03:50AM 19.5667 -66.6667 311° West 440 506 38,000  Level San Juan Center
03:51AM 19.6500 -66.7667 312° West 430 495 38,000  Level San Juan Center
03:52AM 19.7333 -66.8500 317° Northwest 430 495 38,000  Level San Juan Center
03:53AM 19.8167 -66.9500 312° West 430 495 38,000  Level San Juan Center
03:54AM 19.9000 -67.0500 312° West 430 495 38,000  Level San Juan Center
03:55AM 19.9833 -67.1500 312° West 440 506 38,000  Level San Juan Center
03:56AM 20.0500 -67.2333 310° West 430 495 38,000  Level San Juan Center
03:57AM 20.1333 -67.3333 312° West 430 495 38,000  Level San Juan Center
03:58AM 20.2167 -67.4333 312° West 440 506 38,000  Level San Juan Center
03:59AM 20.3000 -67.5333 312° West 430 495 38,000  Level San Juan Center
04:00AM 20.3833 -67.6167 317° Northwest 440 506 38,000  Level San Juan Center
04:01AM 20.4667 -67.7167 312° West 430 495 38,000  Level San Juan Center
04:02AM 20.5500 -67.8167 312° West 430 495 38,000  Level San Juan Center
04:03AM 20.6642 -67.9400 315° West 434 499 38,000  Level Miami Center
04:04AM 20.7467 -68.0364 312° West 434 499 38,000  Level Miami Center
04:05AM 20.8350 -68.1258 317° Northwest 434 499 38,000  Level Miami Center
04:06AM 20.9272 -68.2131 319° Northwest 439 505 38,000  Level Miami Center
04:07AM 21.0233 -68.2956 321° Northwest 439 505 38,000  Level Miami Center
04:08AM 21.1178 -68.3806 320° Northwest 439 505 38,000  Level Miami Center
04:09AM 21.2142 -68.4678 320° Northwest 439 505 38,000  Level Miami Center
04:10AM 21.3061 -68.5511 320° Northwest 446 513 38,000  Level Miami Center
04:11AM 21.3981 -68.6364 319° Northwest 441 507 38,000  Level Miami Center
04:12AM 21.4942 -68.7194 321° Northwest 435 501 38,000  Level Miami Center
04:13AM 21.5819 -68.8033 318° Northwest 435 501 38,000  Level Miami Center
04:14AM 21.6739 -68.8869 320° Northwest 430 495 38,000  Level Miami Center
04:15AM 21.7656 -68.9706 320° Northwest 430 495 38,000  Level Miami Center
04:16AM 21.8594 -69.0544 320° Northwest 437 503 38,000  Level Miami Center
04:17AM 21.9533 -69.1381 320° Northwest 437 503 38,000  Level Miami Center
04:18AM 22.0408 -69.2203 319° Northwest 430 495 38,000  Level Miami Center
04:19AM 22.1347 -69.3044 320° Northwest 435 501 38,000  Level Miami Center
04:20AM 22.2286 -69.3908 320° Northwest 435 501 38,000  Level Miami Center
04:21AM 22.3225 -69.4750 320° Northwest 435 501 38,000  Level Miami Center
04:22AM 22.4161 -69.5594 320° Northwest 435 501 38,000  Level Miami Center
04:23AM 22.5100 -69.6461 320° Northwest 435 501 38,000  Level Miami Center
04:24AM 22.6017 -69.7308 320° Northwest 436 502 38,000  Level Miami Center
04:25AM 22.6953 -69.8156 320° Northwest 436 502 38,000  Level Miami Center
04:26AM 22.7889 -69.9028 319° Northwest 430 495 38,000  Level Miami Center
04:27AM 22.8803 -69.9833 321° Northwest 430 495 38,000  Level Miami Center
04:28AM 22.9697 -70.0689 319° Northwest 435 501 38,000  Level Miami Center
04:29AM 23.0633 -70.1586 319° Northwest 436 502 38,000  Level Miami Center
04:30AM 23.1525 -70.2397 320° Northwest 429 494 38,000  Level Miami Center
04:31AM 23.2461 -70.3272 319° Northwest 434 499 38,000  Level Miami Center
04:32AM 23.3372 -70.4108 320° Northwest 429 494 38,000  Level Miami Center
04:33AM 23.4264 -70.4967 319° Northwest 429 494 38,000  Level Miami Center
04:34AM 23.5200 -70.5825 320° Northwest 434 499 38,000  Level Miami Center
04:35AM 23.6108 -70.6642 321° Northwest 434 499 38,000  Level Miami Center
04:36AM 23.7025 -70.7572 317° Northwest 434 499 38,000  Level Miami Center
04:37AM 23.7933 -70.8367 321° Northwest 429 494 38,000  Level Miami Center
04:38AM 23.8844 -70.9231 319° Northwest 429 494 38,000  Level Miami Center
04:39AM 23.9756 -71.0142 318° Northwest 437 503 38,000  Level Miami Center
04:40AM 24.0667 -71.0964 321° Northwest 431 496 38,000  Level Miami Center
04:41AM 24.1556 -71.1878 317° Northwest 431 496 38,000  Level Miami Center
04:42AM 24.2464 -71.2678 321° Northwest 431 496 38,000  Level Miami Center
04:43AM 24.3353 -71.3550 318° Northwest 431 496 38,000  Level Miami Center
04:44AM 24.4258 -71.4375 320° Northwest 431 496 38,000  Level Miami Center
04:45AM 24.5150 -71.5294 317° Northwest 427 491 38,000  Level Miami Center
04:46AM 24.6036 -71.6169 318° Northwest 427 491 38,000  Level Miami Center
04:47AM 24.6919 -71.6978 320° Northwest 422 486 38,000  Level Miami Center
04:48AM 24.7808 -71.7878 317° Northwest 428 493 38,000  Level Miami Center
04:49AM 24.8694 -71.8781 317° Northwest 428 493 38,000  Level Miami Center
04:50AM 24.9578 -71.9592 320° Northwest 428 493 38,000  Level Miami Center
04:51AM 25.0669 -72.0350 328° Northwest 439 505 38,000  Level Miami Center
04:53AM 25.1905 -72.1138 330° Northwest  Level FlightAware Approximate
04:53AM 25.0000 -72.0000 330° Northwest 435 501 38,000  Level New York Oceanic (ODAPS)
05:00AM 26.0518 -72.6698 330° Northwest 435 501 38,000  Level FlightAware Transoceanic
05:01AM 26.1568 -72.7374 330° Northwest 435 501 38,000  Level FlightAware Transoceanic
05:02AM 26.2617 -72.8052 330° Northwest 435 501 38,000  Level FlightAware Transoceanic
05:03AM 26.3667 -72.8730 330° Northwest 435 501 38,000  Level FlightAware Transoceanic
05:04AM 26.4716 -72.9410 330° Northwest 435 501 38,000  Level FlightAware Transoceanic
05:05AM 26.5765 -73.0092 330° Northwest 435 501 38,000  Level FlightAware Transoceanic
05:06AM 26.6813 -73.0774 330° Northwest 435 501 38,000  Level FlightAware Transoceanic
05:07AM 26.7861 -73.1458 330° Northwest 435 501 38,000  Level FlightAware Transoceanic
05:08AM 26.8909 -73.2143 330° Northwest 435 501 38,000  Level FlightAware Transoceanic
05:09AM 26.9957 -73.2829 330° Northwest 435 501 38,000  Level FlightAware Transoceanic
05:10AM 27.1004 -73.3517 330° Northwest 435 501 38,000  Level FlightAware Transoceanic
05:11AM 27.2051 -73.4206 330° Northwest 435 501 38,000  Level FlightAware Transoceanic
05:12AM 27.3097 -73.4896 330° Northwest 435 501 38,000  Level FlightAware Transoceanic
05:13AM 27.4143 -73.5587 330° Northwest 435 501 38,000  Level FlightAware Transoceanic
05:14AM 27.5189 -73.6280 330° Northwest 435 501 38,000  Level FlightAware Transoceanic
05:15AM 27.6235 -73.6974 330° Northwest 435 501 38,000  Level FlightAware Transoceanic
05:16AM 27.7280 -73.7670 329° Northwest 435 501 38,000  Level FlightAware Transoceanic
05:17AM 27.8325 -73.8366 329° Northwest 435 501 38,000  Level FlightAware Transoceanic
05:18AM 27.9369 -73.9064 329° Northwest 435 501 38,000  Level FlightAware Transoceanic
05:19AM 28.0413 -73.9764 329° Northwest 435 501 38,000  Level FlightAware Transoceanic
05:20AM 28.1457 -74.0464 329° Northwest 435 501 38,000  Level FlightAware Transoceanic
05:21AM 28.2500 -74.1167 322° Northwest 435 501 38,000  Level FlightAware Transoceanic
05:22AM 28.3420 -74.1990 322° Northwest 435 501 38,000  Level FlightAware Transoceanic
05:22AM 28.2500 -74.1167 322° Northwest 409 471 38,000  Level New York Oceanic (ODAPS)
05:23AM 28.4340 -74.2814 322° Northwest 435 501 38,000  Level FlightAware Transoceanic
05:24AM 28.5260 -74.3641 322° Northwest 435 501 38,000  Level FlightAware Transoceanic
05:25AM 28.6179 -74.4468 322° Northwest 435 501 38,000  Level FlightAware Transoceanic
05:26AM 28.7097 -74.5297 322° Northwest 435 501 38,000  Level FlightAware Transoceanic
05:27AM 28.8015 -74.6127 322° Northwest 435 501 38,000  Level FlightAware Transoceanic
05:28AM 28.8933 -74.6959 322° Northwest 435 501 38,000  Level FlightAware Transoceanic
05:29AM 28.9640 -74.7602 321° Northwest 409 471 38,000  Level FlightAware Transoceanic
05:30AM 29.0530 -74.8412 321° Northwest 409 471 38,000  Level FlightAware Transoceanic
05:31AM 29.1420 -74.9224 321° Northwest 409 471 38,000  Level FlightAware Transoceanic
05:32AM 29.2309 -75.0038 321° Northwest 409 471 38,000  Level FlightAware Transoceanic
05:33AM 29.3198 -75.0853 321° Northwest 409 471 38,000  Level FlightAware Transoceanic
05:34AM 29.4087 -75.1669 321° Northwest 409 471 38,000  Level FlightAware Transoceanic
05:35AM 29.4975 -75.2487 321° Northwest 409 471 38,000  Level FlightAware Transoceanic
05:36AM 29.5862 -75.3306 321° Northwest 409 471 38,000  Level FlightAware Transoceanic
05:37AM 29.6749 -75.4126 321° Northwest 409 471 38,000  Level FlightAware Transoceanic
05:38AM 29.7635 -75.4948 321° Northwest 409 471 38,000  Level FlightAware Transoceanic
05:39AM 29.8521 -75.5772 321° Northwest 409 471 38,000  Level FlightAware Transoceanic
05:40AM 29.9406 -75.6597 321° Northwest 409 471 38,000  Level FlightAware Transoceanic
05:41AM 30.0291 -75.7423 321° Northwest 409 471 38,000  Level FlightAware Transoceanic
05:42AM 30.1176 -75.8251 321° Northwest 409 471 38,000  Level FlightAware Transoceanic
05:43AM 30.2059 -75.9080 321° Northwest 409 471 38,000  Level FlightAware Transoceanic
05:44AM 30.2943 -75.9911 321° Northwest 409 471 38,000  Level FlightAware Transoceanic
05:45AM 30.3825 -76.0743 321° Northwest 409 471 38,000  Level FlightAware Transoceanic
05:46AM 30.4708 -76.1577 321° Northwest 409 471 38,000  Level FlightAware Transoceanic
05:47AM 30.5589 -76.2413 321° Northwest 409 471 38,000  Level FlightAware Transoceanic
05:48AM 30.6470 -76.3250 321° Northwest 409 471 38,000  Level FlightAware Transoceanic
05:49AM 30.7351 -76.4088 321° Northwest 409 471 38,000  Level FlightAware Transoceanic
05:50AM 30.8231 -76.4928 321° Northwest 409 471 38,000  Level FlightAware Transoceanic
05:51AM 30.9111 -76.5769 321° Northwest 409 471 38,000  Level FlightAware Transoceanic
05:51AM 30.9611 -76.6142 321° Northwest 457 526 38,000  Level Jacksonville Center
05:52AM 30.9990 -76.6612 321° Northwest 409 471 38,000  Level FlightAware Transoceanic
05:52AM 31.0589 -76.6925 326° Northwest 444 511 38,000  Level Jacksonville Center
05:53AM 31.0868 -76.7457 320° Northwest 409 471 38,000  Level FlightAware Transoceanic
05:53AM 31.1453 -76.7958 314° West 433 498 38,000  Level Jacksonville Center
05:54AM 31.1746 -76.8303 320° Northwest 409 471 38,000  Level FlightAware Transoceanic
05:54AM 31.2369 -76.8797 322° Northwest 428 493 38,000  Level Jacksonville Center
05:55AM 31.2623 -76.9151 320° Northwest 409 471 38,000  Level FlightAware Transoceanic
05:55AM 31.3269 -76.9714 319° Northwest 423 487 38,000  Level Jacksonville Center
05:56AM 31.3500 -77.0000 321° Northwest 409 471 38,000  Level FlightAware Transoceanic
05:56AM 31.4164 -77.0556 321° Northwest 423 487 38,000  Level Jacksonville Center
05:57AM 31.4403 -77.0843 321° Northwest 409 471 38,000  Level FlightAware Transoceanic
05:57AM 31.5097 -77.1375 323° Northwest 423 487 38,000  Level Jacksonville Center
05:58AM 31.5975 -77.2294 318° Northwest 423 487 38,000  Level Jacksonville Center
05:59AM 31.6564 -77.3381 303° West 405 466 38,000  Level Jacksonville Center
06:00AM 31.7114 -77.4497 300° West 405 466 38,000  Level Jacksonville Center
06:01AM 31.7622 -77.5664 297° West 400 460 38,000  Level Jacksonville Center
06:02AM 31.8192 -77.6781 301° West 400 460 38,000  Level Jacksonville Center
06:03AM 31.8739 -77.7947 299° West 400 460 38,000  Level Jacksonville Center
06:04AM 31.9286 -77.9067 300° West 400 460 38,000  Level Jacksonville Center
06:05AM 31.9789 -78.0214 297° West 405 466 38,000  Level Jacksonville Center
06:06AM 32.0314 -78.1364 298° West 399 459 38,000 -480 Level Jacksonville Center
06:07AM 32.0858 -78.2586 298° West 408 470 37,100 -1,200 Descending Jacksonville Center
06:08AM 32.1381 -78.3761 298° West 413 475 35,600 -1,500 Descending Jacksonville Center
06:09AM 32.1925 -78.4961 298° West 413 475 34,200 -1,380 Descending Jacksonville Center
06:10AM 32.2528 -78.6136 301° West 418 481 32,900 -1,500 Descending Jacksonville Center
06:11AM 32.3069 -78.7339 298° West 418 481 31,300 -960 Descending Jacksonville Center
06:12AM 32.3631 -78.8494 300° West 418 481 31,000 -180 Descending Jacksonville Center
06:13AM 32.4147 -78.9678 297° West 413 475 31,000  Level Jacksonville Center
06:14AM 32.4706 -79.0908 298° West 413 475 31,000  Level Jacksonville Center
06:15AM 32.5242 -79.2117 298° West 413 475 31,000  Level Jacksonville Center
06:16AM 32.5778 -79.3353 297° West 418 481 31,000  Level Jacksonville Center
06:17AM 32.6314 -79.4564 298° West 418 481 31,000 -60 Level Jacksonville Center
06:18AM 32.6908 -79.5775 300° West 423 487 30,900 -600 Descending Jacksonville Center
06:19AM 32.8014 -79.6503 331° Northwest 423 487 29,900 -900 Descending Jacksonville Center
06:20AM 32.9336 -79.6750 351° North 442 509 29,200 -780 Descending Jacksonville Center
06:21AM 33.0633 -79.6978 352° North 454 522 28,400 -780 Descending Jacksonville Center
06:22AM 33.1956 -79.7203 352° North 460 529 27,700 -780 Descending Jacksonville Center
06:23AM 33.3233 -79.7456 351° North 466 536 26,900 -840 Descending Jacksonville Center
06:24AM 33.4472 -79.7736 349° North 466 536 26,100 -960 Descending Jacksonville Center
06:25AM 33.5711 -79.7992 350° North 455 524 25,000 -1,320 Descending Jacksonville Center
06:26AM 33.6925 -79.8197 352° North 445 512 23,500 -1,500 Descending Jacksonville Center
06:27AM 33.8039 -79.8458 349° North 437 503 22,000 -1,320 Descending Jacksonville Center
06:28AM 33.9053 -79.9000 336° Northwest 408 470 20,900 -1,080 Descending Jacksonville Center
06:29AM 33.9983 -79.9544 334° Northwest 383 441 19,900 -960 Descending Jacksonville Center
06:30AM 34.0850 -80.0042 335° Northwest 360 414 19,000 -1,080 Descending Jacksonville Center
06:31AM 34.1758 -80.0514 337° Northwest 349 402 17,800 -1,140 Descending Jacksonville Center
06:32AM 34.2603 -80.0964 336° Northwest 344 396 16,800 -1,080 Descending Jacksonville Center
06:33AM 34.3450 -80.1489 333° Northwest 339 390 15,700 -1,080 Descending Jacksonville Center
06:34AM 34.4272 -80.1917 337° Northwest 339 390 14,700 -1,020 Descending Jacksonville Center
06:35AM 34.5094 -80.2369 336° Northwest 329 379 13,700 -1,080 Descending Jacksonville Center
06:37AM 34.6497 -80.3144 336° Northwest 313 360 11,900 -960 Descending Atlanta Center
06:38AM 34.7203 -80.3669 329° Northwest 303 349 11,100 -420 Descending Atlanta Center
06:39AM 34.7828 -80.4375 317° Northwest 301 346 11,100  Level Atlanta Center
06:40AM 34.8392 -80.5111 313° West 299 344 11,100  Level Atlanta Center
06:41AM 34.8956 -80.5844 313° West 295 339 11,100 -720 Level Atlanta Center
06:42AM 34.9581 -80.6581 316° Northwest 293 337 9,700 -1,020 Descending Atlanta Center
06:43AM 35.0103 -80.7294 312° West 282 325 9,100 -300 Descending Atlanta Center
06:44AM 35.0642 -80.7933 316° Northwest 272 313 9,100  Level Atlanta Center
06:45AM 35.1139 -80.8650 310° West 274 315 9,100  Level Atlanta Center
06:46AM 35.1533 -80.9422 302° West 266 306 9,100  Level Atlanta Center
06:47AM 35.1928 -81.0144 304° West 250 288 9,100 -540 Level Atlanta Center
06:48AM 35.2522 -81.0581 329° Northwest 256 295 8,100 -1,140 Descending Atlanta Center
06:49AM 35.3297 -81.0653 356° North 233 268 6,700 -1,380 Descending Atlanta Center
06:50AM 35.3833 -81.0456 17° North 213 245 5,200 -1,380 Descending Atlanta Center
06:51AM 35.3675 -80.9875 108° East 193 222 3,900 -1,320 Descending Atlanta Center